Aeroporto :
LOGIN :

Iscrizione | Disclaimer

   EN    FR    IT 

 










Sommario :    VFR   VFR Marginale   IFR   IFR Intensivo   IFR Molto Intensivo
Visibilità : 
Base nubi : 
>= 8 km
>= 3000ft
5 / 8 km
1000 / 3000 ft
1500m / 5 km
500 / 1000 ft
800 / 1500m
200 / 500 ft
< 800m
< 200 ft
Simboli :   Temporali  Nebbia  Neve Forte  Precipitazioni Forti  Vento > 20 kt
SIGMETs :   Varie  Temporali  Ghiacco  Turbolenza  Onda orograficha  Ceneri Vulcaniche






- Altitudine del aeroporto : 277 ft
- Codice IATA : JER


EGJJ - Jersey

ULTIMO METAR :
  • 221650Z 25017KT 8000 FEW003 BKN004 10/10 Q1027

METARs OBSOLETI :
  • 221620Z 25018KT 4000 -RADZ BR FEW000 SCT001 BKN002 10/10 Q1027
  • 221550Z 25020KT 3000 R26/0900 -RADZ BR FEW000 SCT001 BKN002 10/10 Q1027
  • 221520Z 25020KT 2000 R26/1200 VCFG -RADZ SCT000 BKN001 10/10 Q1026
  • 221450Z 25023KT 3000 VCFG -RADZ SCT001 BKN002 10/10 Q1026
  • 221420Z 25023KT 7000 FEW003 BKN004 10/10 Q1026

TAF AMD TAF EGJJ
Valido dal 22 a 15 ore il 23 a 00 ore UTC


221510Z 2215/2300 24018KT 4000 BR BKN003
TEMPO 2215/2220 25022G32KT 0500 -RADZ FG BKN000
PROB30
TEMPO 2215/2220 9999 FEW008 SCT015
TEMPO 2221/2300 3000 RADZ BKN002
PROB40
TEMPO 2221/2300 0800 BCFG SCT000 BKN001
ATIS : +44 1534 498 073



MetMap, La meteo Aeronautica in un colpo d'occhio ! - Copyright ORBIFLY Dicembre 2007 - Disclaimer

ORBIFLY MET'MAP TEAM :

Programmazione e sviluppo : Alexandra Zaïnal
Concezione : Baudouin d'Aumeries
Aiuto per la programmazione : Marc-Olivier Méhu
Supporto tecnico e logistico : Manuel Goepfert
Aiuto per la traduzione : Arnaldo La Scala

Contatto : metmap@orbifly.com




FONTI E CREDITI :

   NOAA